Time;durP1;ratioP1;P1;durP2;ratioP2;P2;SDS_P1;SDS_P2;PMS_P1;PMS_P2;Temp;Humidity;BMP_temperature;BMP_pressure;BME280_temperature;BME280_humidity;BME280_pressure;Samples;Min_cycle;Max_cycle;Signal;HPM_P1;HPM_P2
2023/05/15 00:02:15;;;;;;;25.30;13.37;;;12.50;99.90;;;;;;5049520;28;20711;-75
2023/05/15 00:04:42;;;;;;;25.33;14.27;;;12.50;99.90;;;;;;5049521;28;20236;-76
2023/05/15 00:07:09;;;;;;;28.33;13.60;;;12.50;99.90;;;;;;5045509;28;20208;-75
2023/05/15 00:09:36;;;;;;;27.53;13.93;;;12.40;99.90;;;;;;5048502;28;20749;-75
2023/05/15 00:12:02;;;;;;;26.80;14.63;;;12.40;99.90;;;;;;5050940;28;20213;-76
2023/05/15 00:14:29;;;;;;;29.23;13.47;;;12.30;99.90;;;;;;5049191;28;20224;-75
2023/05/15 00:16:56;;;;;;;24.40;13.60;;;12.30;99.90;;;;;;5049484;28;20298;-76
2023/05/15 00:19:22;;;;;;;25.60;13.43;;;12.30;99.90;;;;;;5049075;28;20568;-76
2023/05/15 00:21:49;;;;;;;29.37;15.27;;;12.30;99.90;;;;;;5049220;28;20685;-76
2023/05/15 00:24:16;;;;;;;26.80;13.03;;;12.30;99.90;;;;;;5045401;28;20231;-76
2023/05/15 00:26:43;;;;;;;26.77;13.87;;;12.20;99.90;;;;;;5048895;28;20729;-75
2023/05/15 00:29:10;;;;;;;22.63;12.33;;;12.20;99.90;;;;;;5049057;28;20375;-75
2023/05/15 00:31:36;;;;;;;22.73;12.20;;;12.20;99.90;;;;;;5051821;28;20580;-75
2023/05/15 00:34:03;;;;;;;29.00;13.97;;;12.20;99.90;;;;;;5044946;28;20247;-75
2023/05/15 00:36:30;;;;;;;23.23;12.77;;;12.20;99.90;;;;;;5049352;28;20219;-77
2023/05/15 00:38:57;;;;;;;26.93;14.27;;;12.10;99.90;;;;;;5047426;28;20638;-75
2023/05/15 00:41:27;;;;;;;28.07;14.50;;;12.20;99.90;;;;;;5047783;28;20289;-75
2023/05/15 00:43:54;;;;;;;29.33;13.77;;;12.10;99.90;;;;;;5047191;28;20748;-76
2023/05/15 00:46:23;;;;;;;26.50;13.53;;;12.10;99.90;;;;;;5050866;28;20236;-76
2023/05/15 00:48:51;;;;;;;27.77;13.63;;;12.10;99.90;;;;;;5052405;28;20803;-76
2023/05/15 00:51:17;;;;;;;26.50;13.10;;;12.10;99.90;;;;;;5048540;28;20292;-75
2023/05/15 00:53:44;;;;;;;30.40;14.10;;;12.00;99.90;;;;;;5050928;28;20298;-75
2023/05/15 00:56:11;;;;;;;33.50;15.27;;;12.00;99.90;;;;;;5052710;28;20281;-75
2023/05/15 00:58:38;;;;;;;26.77;14.37;;;11.90;99.90;;;;;;5052284;28;20209;-75
2023/05/15 01:01:05;;;;;;;28.90;13.73;;;11.90;99.90;;;;;;5053017;28;20211;-75
2023/05/15 01:03:34;;;;;;;25.97;14.47;;;11.80;99.90;;;;;;5052349;28;20699;-75
2023/05/15 01:06:01;;;;;;;26.30;14.00;;;11.80;99.90;;;;;;5052667;28;20198;-75
2023/05/15 01:08:36;;;;;;;24.47;13.30;;;11.80;99.90;;;;;;5052340;28;20561;-76
2023/05/15 01:11:06;;;;;;;29.50;14.43;;;11.80;99.90;;;;;;5055421;28;20567;-75
2023/05/15 01:13:33;;;;;;;26.77;13.20;;;11.70;99.90;;;;;;5048475;28;20225;-74
2023/05/15 01:15:59;;;;;;;25.00;13.67;;;11.70;99.90;;;;;;5052666;28;20230;-75
2023/05/15 01:18:31;;;;;;;27.93;13.70;;;11.70;99.90;;;;;;5048126;28;20238;-77
2023/05/15 01:21:03;;;;;;;27.13;13.83;;;11.70;99.90;;;;;;5053098;28;20245;-75
2023/05/15 01:24:08;;;;;;;26.87;14.40;;;11.60;99.90;;;;;;5051745;28;20338;-75
2023/05/15 01:27:22;;;;;;;24.67;12.90;;;11.60;99.90;;;;;;5051313;28;20571;-75
2023/05/15 01:30:10;;;;;;;24.83;13.13;;;11.60;99.90;;;;;;4981961;28;20328;-76
2023/05/15 01:33:06;;;;;;;26.47;13.40;;;11.50;99.90;;;;;;4963998;28;20275;-76
2023/05/15 01:35:42;;;;;;;27.50;14.50;;;11.50;99.90;;;;;;5037595;28;20592;-75
2023/05/15 01:38:26;;;;;;;29.47;14.40;;;11.50;99.90;;;;;;5048389;28;20275;-76
2023/05/15 01:41:00;;;;;;;30.37;14.80;;;11.50;99.90;;;;;;5053087;28;20283;-76
2023/05/15 01:43:29;;;;;;;28.33;13.33;;;11.50;99.90;;;;;;5048314;28;20237;-76
2023/05/15 01:45:57;;;;;;;25.83;13.67;;;11.50;99.90;;;;;;5051942;28;20333;-75
2023/05/15 01:48:27;;;;;;;26.73;13.93;;;11.50;99.90;;;;;;5051144;28;20207;-76
2023/05/15 01:51:00;;;;;;;26.87;14.27;;;11.40;99.90;;;;;;5051609;28;20206;-75
2023/05/15 01:53:30;;;;;;;25.13;12.97;;;11.40;99.90;;;;;;5051170;28;20217;-76
2023/05/15 01:55:58;;;;;;;26.53;13.37;;;11.40;99.90;;;;;;5048141;28;20199;-76
2023/05/15 01:58:26;;;;;;;30.77;13.93;;;11.40;99.90;;;;;;5033685;28;20626;-76
2023/05/15 02:00:54;;;;;;;29.73;15.07;;;11.30;99.90;;;;;;5054094;28;20439;-74
2023/05/15 02:03:22;;;;;;;27.17;14.20;;;11.30;99.90;;;;;;5032298;28;20756;-76
2023/05/15 02:05:50;;;;;;;28.10;14.30;;;11.30;99.90;;;;;;5047764;28;20201;-75
2023/05/15 02:08:18;;;;;;;29.23;14.67;;;11.30;99.90;;;;;;5051701;28;20230;-75
2023/05/15 02:10:46;;;;;;;30.07;14.90;;;11.30;99.90;;;;;;5032106;28;20637;-76
2023/05/15 02:13:13;;;;;;;30.70;15.07;;;11.30;99.90;;;;;;5051348;28;20199;-76
2023/05/15 02:15:42;;;;;;;30.57;14.87;;;11.30;99.90;;;;;;5051181;28;20306;-75
2023/05/15 02:18:09;;;;;;;29.00;13.87;;;11.30;99.90;;;;;;5033129;28;20290;-76
2023/05/15 02:20:35;;;;;;;28.63;15.43;;;11.30;99.90;;;;;;5051075;28;20216;-76
2023/05/15 02:23:02;;;;;;;28.60;14.27;;;11.30;99.90;;;;;;5051341;28;20214;-75
2023/05/15 02:25:43;;;;;;;28.90;14.30;;;11.30;99.90;;;;;;5050758;28;20635;-75
2023/05/15 02:28:17;;;;;;;27.13;13.30;;;11.30;99.90;;;;;;5050499;28;20207;-75
2023/05/15 02:31:18;;;;;;;30.27;15.03;;;11.30;99.90;;;;;;5050725;28;20231;-76
2023/05/15 02:34:10;;;;;;;29.70;15.10;;;11.30;99.90;;;;;;5035233;28;20199;-74
2023/05/15 02:36:40;;;;;;;24.87;13.83;;;11.30;99.90;;;;;;5049513;28;20289;-76
2023/05/15 02:39:11;;;;;;;30.40;13.30;;;11.30;99.90;;;;;;5051022;28;20221;-75
2023/05/15 02:41:39;;;;;;;29.93;14.63;;;11.30;99.90;;;;;;5051365;28;20585;-75
2023/05/15 02:44:07;;;;;;;27.90;14.23;;;11.30;99.90;;;;;;5052081;28;20300;-75
2023/05/15 02:46:37;;;;;;;25.63;13.17;;;11.30;99.90;;;;;;5049442;28;20372;-75
2023/05/15 02:49:04;;;;;;;29.30;14.07;;;11.30;99.90;;;;;;5049911;28;20281;-75
2023/05/15 02:51:31;;;;;;;27.30;14.40;;;11.20;99.90;;;;;;5033130;28;20211;-75
2023/05/15 02:54:00;;;;;;;27.13;14.23;;;11.20;99.90;;;;;;5030929;28;20612;-76
2023/05/15 02:56:27;;;;;;;33.47;14.33;;;11.10;99.90;;;;;;5032872;28;20202;-75
2023/05/15 02:58:55;;;;;;;28.53;14.27;;;11.10;99.90;;;;;;5050253;28;20213;-74
2023/05/15 03:01:22;;;;;;;29.77;15.40;;;11.30;99.90;;;;;;5046722;28;20202;-76
2023/05/15 03:03:48;;;;;;;30.60;14.00;;;11.10;99.90;;;;;;5045078;28;20230;-74
2023/05/15 03:06:17;;;;;;;31.47;15.03;;;11.10;99.90;;;;;;5050677;28;20286;-75
2023/05/15 03:08:44;;;;;;;28.47;14.80;;;11.20;99.90;;;;;;5038749;28;20580;-75
2023/05/15 03:11:11;;;;;;;32.27;14.70;;;11.10;99.90;;;;;;5038843;28;20658;-75
2023/05/15 03:13:38;;;;;;;26.67;14.03;;;11.00;99.90;;;;;;5039525;28;20242;-75
2023/05/15 03:16:05;;;;;;;29.60;14.70;;;11.00;99.90;;;;;;5050170;28;20674;-76
2023/05/15 03:18:31;;;;;;;29.40;15.30;;;11.00;99.90;;;;;;5032040;28;20291;-74
2023/05/15 03:20:58;;;;;;;31.27;14.07;;;10.90;99.90;;;;;;5050830;28;20221;-76
2023/05/15 03:23:25;;;;;;;28.17;14.80;;;10.90;99.90;;;;;;5050088;28;20253;-75
2023/05/15 03:25:52;;;;;;;28.93;14.40;;;10.90;99.90;;;;;;5049660;28;20261;-75
2023/05/15 03:28:19;;;;;;;26.17;13.37;;;10.90;99.90;;;;;;5049359;28;20198;-76
2023/05/15 03:30:45;;;;;;;32.20;15.37;;;10.70;99.90;;;;;;5048838;28;20283;-75
2023/05/15 03:33:12;;;;;;;31.17;14.57;;;10.80;99.90;;;;;;5043997;28;20246;-75
2023/05/15 03:35:39;;;;;;;34.43;15.83;;;10.90;99.90;;;;;;5050082;28;20252;-75
2023/05/15 03:38:06;;;;;;;32.10;15.77;;;10.80;99.90;;;;;;5045964;28;20656;-74
2023/05/15 03:40:33;;;;;;;30.53;15.30;;;10.70;99.90;;;;;;5048881;28;20206;-74
2023/05/15 03:42:59;;;;;;;28.73;14.03;;;10.80;99.90;;;;;;5045809;28;20209;-74
2023/05/15 03:45:26;;;;;;;26.90;14.10;;;10.70;99.90;;;;;;5031537;28;20228;-76
2023/05/15 03:47:53;;;;;;;29.67;14.70;;;10.60;99.90;;;;;;5038090;28;20269;-75
2023/05/15 03:50:20;;;;;;;30.50;14.50;;;10.60;99.90;;;;;;5049641;28;20207;-75
2023/05/15 03:52:47;;;;;;;30.07;14.57;;;10.70;99.90;;;;;;5040621;28;20197;-78
2023/05/15 03:55:14;;;;;;;33.97;15.53;;;10.70;99.90;;;;;;5042790;28;20214;-74
2023/05/15 03:57:41;;;;;;;33.03;15.37;;;10.70;99.90;;;;;;5049307;28;20244;-76
2023/05/15 04:00:09;;;;;;;30.37;14.67;;;10.60;99.90;;;;;;5048239;28;20220;-75
2023/05/15 04:02:37;;;;;;;30.27;13.97;;;10.70;99.90;;;;;;5046898;28;20226;-75
2023/05/15 04:05:04;;;;;;;33.00;15.57;;;10.60;99.90;;;;;;5049825;28;20236;-75
2023/05/15 04:07:36;;;;;;;29.87;14.90;;;10.60;99.90;;;;;;5049515;28;20205;-77
2023/05/15 04:10:03;;;;;;;33.10;15.00;;;10.70;99.90;;;;;;5049621;28;20231;-75
2023/05/15 04:12:32;;;;;;;28.20;14.40;;;10.70;99.90;;;;;;5030606;28;20253;-75
2023/05/15 04:15:12;;;;;;;33.83;14.93;;;10.70;99.90;;;;;;5048154;28;20243;-74
2023/05/15 04:17:39;;;;;;;33.53;15.23;;;10.80;99.90;;;;;;5046321;28;20209;-75
2023/05/15 04:20:07;;;;;;;33.93;16.30;;;10.80;99.90;;;;;;5049250;28;20598;-76
2023/05/15 04:22:34;;;;;;;30.13;15.63;;;10.90;99.90;;;;;;5051475;28;20198;-76
2023/05/15 04:25:01;;;;;;;33.47;16.23;;;11.00;99.90;;;;;;5050767;28;20231;-76
2023/05/15 04:27:27;;;;;;;32.87;15.17;;;11.10;99.90;;;;;;5052869;28;20201;-77
2023/05/15 04:29:54;;;;;;;30.03;15.07;;;11.20;99.90;;;;;;5053113;28;20259;-75
2023/05/15 04:32:21;;;;;;;32.40;15.87;;;11.30;99.90;;;;;;5052878;28;20199;-74
2023/05/15 04:34:47;;;;;;;31.20;14.80;;;11.40;99.90;;;;;;5051086;28;20210;-75
2023/05/15 04:37:14;;;;;;;31.43;15.27;;;11.50;99.90;;;;;;5050835;28;20234;-74
2023/05/15 04:39:41;;;;;;;30.90;14.80;;;11.60;99.90;;;;;;5049642;28;20292;-75
2023/05/15 04:42:08;;;;;;;30.33;15.53;;;11.70;99.90;;;;;;5052741;28;20211;-74
2023/05/15 04:44:34;;;;;;;33.43;15.40;;;11.70;99.90;;;;;;5052367;28;20786;-75
2023/05/15 04:47:01;;;;;;;30.20;15.10;;;11.80;99.90;;;;;;5052937;28;20672;-76
2023/05/15 04:49:28;;;;;;;29.13;14.87;;;11.80;99.90;;;;;;5035027;28;20233;-74
2023/05/15 04:51:55;;;;;;;34.33;16.30;;;11.80;99.90;;;;;;5035648;28;20205;-75
2023/05/15 04:54:22;;;;;;;32.17;15.23;;;11.80;99.90;;;;;;5034437;28;20289;-75
2023/05/15 04:56:48;;;;;;;38.33;17.57;;;11.90;99.90;;;;;;5052659;28;20521;-76
2023/05/15 04:59:16;;;;;;;38.83;17.53;;;11.90;99.90;;;;;;5052647;28;20209;-75
2023/05/15 05:01:43;;;;;;;40.57;17.90;;;12.00;99.90;;;;;;5052439;28;20280;-76
2023/05/15 05:04:10;;;;;;;41.23;18.13;;;12.00;99.90;;;;;;5052401;28;20255;-76
2023/05/15 05:06:37;;;;;;;40.97;18.10;;;12.10;99.90;;;;;;5052055;28;20637;-76
2023/05/15 05:09:04;;;;;;;40.63;18.50;;;12.10;99.90;;;;;;5052854;28;20211;-76
2023/05/15 05:11:30;;;;;;;44.70;17.67;;;12.10;99.90;;;;;;5052266;28;20205;-76
2023/05/15 05:13:57;;;;;;;36.43;17.17;;;12.10;99.90;;;;;;5048091;28;20282;-75
2023/05/15 05:16:24;;;;;;;38.40;17.50;;;12.10;99.90;;;;;;5048953;28;20227;-74
2023/05/15 05:18:53;;;;;;;36.60;16.83;;;12.10;99.90;;;;;;5048067;28;20194;-78
2023/05/15 05:21:19;;;;;;;41.77;18.33;;;12.10;99.90;;;;;;5051911;28;20209;-75
2023/05/15 05:23:46;;;;;;;38.20;17.07;;;12.20;99.90;;;;;;5051369;28;20284;-76
2023/05/15 05:26:13;;;;;;;41.30;18.00;;;12.20;99.90;;;;;;5051662;28;20693;-75
2023/05/15 05:28:40;;;;;;;40.77;17.97;;;12.20;99.90;;;;;;5051693;28;20300;-75
2023/05/15 05:31:06;;;;;;;37.90;17.20;;;12.30;99.90;;;;;;5050637;28;20228;-75
2023/05/15 05:33:34;;;;;;;40.07;17.87;;;12.40;99.90;;;;;;5049215;28;20205;-74
2023/05/15 05:36:01;;;;;;;39.40;17.97;;;12.40;99.90;;;;;;5051240;28;20213;-75
2023/05/15 05:38:27;;;;;;;44.60;19.17;;;12.50;99.90;;;;;;5051492;28;20229;-76
2023/05/15 05:40:54;;;;;;;41.40;17.70;;;12.50;99.90;;;;;;5050442;28;20683;-76
2023/05/15 05:43:21;;;;;;;38.30;18.20;;;12.50;99.90;;;;;;5033926;28;20666;-74
2023/05/15 05:45:47;;;;;;;46.43;20.00;;;12.60;99.90;;;;;;5051603;28;20243;-75
2023/05/15 05:48:14;;;;;;;35.00;17.53;;;12.70;99.90;;;;;;5051079;28;20243;-75
2023/05/15 05:50:41;;;;;;;36.37;17.63;;;12.70;99.90;;;;;;5051626;28;20240;-74
2023/05/15 05:53:08;;;;;;;39.37;16.73;;;12.80;99.90;;;;;;5034032;28;20209;-75
2023/05/15 05:55:35;;;;;;;37.67;17.20;;;13.00;99.90;;;;;;5051650;28;20235;-75
2023/05/15 05:58:02;;;;;;;29.57;14.70;;;13.20;99.90;;;;;;5051813;28;20209;-75
2023/05/15 06:00:40;;;;;;;29.83;15.37;;;13.10;99.90;;;;;;5031428;28;20584;-75
2023/05/15 06:03:06;;;;;;;29.63;15.90;;;13.20;99.90;;;;;;5033998;28;20233;-76
2023/05/15 06:05:33;;;;;;;32.33;14.90;;;13.20;99.90;;;;;;5051122;28;20257;-76
2023/05/15 06:08:02;;;;;;;28.23;15.03;;;13.30;99.90;;;;;;5051398;28;20236;-76
2023/05/15 06:10:32;;;;;;;27.27;14.27;;;13.50;99.90;;;;;;5041628;28;20213;-77
2023/05/15 06:13:03;;;;;;;24.03;14.03;;;13.80;99.90;;;;;;5034413;28;20642;-74
2023/05/15 06:15:30;;;;;;;24.03;12.70;;;14.50;99.90;;;;;;5033057;28;20332;-75
2023/05/15 06:17:57;;;;;;;20.40;12.43;;;15.10;99.90;;;;;;5050174;28;20213;-74
2023/05/15 06:20:24;;;;;;;24.15;12.25;;;15.70;99.90;;;;;;5046933;28;20292;-75
2023/05/15 06:22:51;;;;;;;23.30;11.60;;;16.20;99.90;;;;;;5050418;28;20201;-76
2023/05/15 06:25:18;;;;;;;18.13;11.63;;;16.40;99.90;;;;;;5050679;28;20240;-75
2023/05/15 06:27:46;;;;;;;21.10;12.52;;;16.60;99.90;;;;;;5045782;28;20232;-75
2023/05/15 06:30:13;;;;;;;17.20;11.30;;;16.80;99.90;;;;;;5050267;28;20267;-74
2023/05/15 06:32:40;;;;;;;18.27;11.48;;;16.90;99.90;;;;;;5047014;28;20244;-75
2023/05/15 06:35:08;;;;;;;20.15;11.32;;;17.20;99.90;;;;;;5049469;28;20235;-74
2023/05/15 06:37:36;;;;;;;18.67;11.52;;;17.50;99.90;;;;;;5046556;28;20721;-75
2023/05/15 06:40:04;;;;;;;17.70;11.48;;;17.70;99.90;;;;;;5042217;28;20209;-76
2023/05/15 06:42:32;;;;;;;18.50;11.27;;;17.60;99.90;;;;;;5045549;28;20207;-75
2023/05/15 06:44:59;;;;;;;17.60;10.57;;;17.40;99.90;;;;;;5038068;28;20601;-75
2023/05/15 06:47:26;;;;;;;17.38;11.68;;;17.10;99.90;;;;;;5049898;28;20200;-75
2023/05/15 06:49:54;;;;;;;20.48;11.77;;;16.70;99.90;;;;;;5050007;28;20209;-74
2023/05/15 06:52:21;;;;;;;17.77;10.45;;;16.60;99.90;;;;;;5030198;28;20291;-75
2023/05/15 06:54:48;;;;;;;18.73;11.05;;;16.90;99.90;;;;;;5032277;28;20213;-76
2023/05/15 06:57:15;;;;;;;19.25;11.55;;;17.20;99.90;;;;;;5035910;28;20715;-75
2023/05/15 06:59:41;;;;;;;19.13;10.50;;;17.90;99.90;;;;;;5031013;28;20709;-74
2023/05/15 07:02:08;;;;;;;16.63;10.40;;;18.40;99.90;;;;;;5040720;28;20198;-74
2023/05/15 07:04:35;;;;;;;20.70;10.52;;;18.90;99.90;;;;;;5034631;28;20236;-74
2023/05/15 07:07:02;;;;;;;18.50;11.15;;;19.40;99.90;;;;;;5048631;28;20196;-74
2023/05/15 07:09:29;;;;;;;15.93;9.30;;;20.20;99.90;;;;;;5049817;28;20213;-75
2023/05/15 07:11:56;;;;;;;14.38;10.25;;;20.70;99.90;;;;;;5049441;28;20644;-75
2023/05/15 07:14:23;;;;;;;17.42;10.55;;;21.00;99.90;;;;;;5049352;28;20217;-74
2023/05/15 07:16:49;;;;;;;14.05;10.05;;;21.30;99.90;;;;;;5045921;28;20200;-75
2023/05/15 07:19:18;;;;;;;13.48;9.95;;;21.60;99.90;;;;;;5047242;28;20197;-76
2023/05/15 07:21:44;;;;;;;17.20;10.52;;;22.00;99.90;;;;;;5049269;28;20622;-75
2023/05/15 07:24:11;;;;;;;14.35;10.75;;;22.30;99.90;;;;;;5049707;28;20316;-74
2023/05/15 07:26:38;;;;;;;17.05;11.15;;;22.40;99.90;;;;;;5049600;28;20324;-75
2023/05/15 07:29:22;;;;;;;15.43;11.02;;;22.30;99.90;;;;;;5044671;28;20255;-75
2023/05/15 07:31:49;;;;;;;14.73;10.75;;;21.90;99.90;;;;;;5049796;28;20216;-75
2023/05/15 07:34:16;;;;;;;15.85;10.82;;;21.60;99.90;;;;;;5048026;28;20208;-75
2023/05/15 07:36:43;;;;;;;14.52;11.05;;;21.30;99.90;;;;;;5046540;28;20653;-75
2023/05/15 07:39:09;;;;;;;17.45;11.93;;;21.20;99.90;;;;;;5045222;28;20619;-74
2023/05/15 07:41:36;;;;;;;12.98;10.23;;;21.20;99.90;;;;;;5049495;28;20328;-75
2023/05/15 07:44:03;;;;;;;13.98;9.60;;;21.50;99.90;;;;;;5049698;28;20256;-73
2023/05/15 07:46:30;;;;;;;14.60;9.27;;;21.70;99.90;;;;;;5048862;28;20689;-75
2023/05/15 07:48:56;;;;;;;13.63;9.55;;;21.80;99.90;;;;;;5043541;28;20193;-75
2023/05/15 07:51:23;;;;;;;12.68;9.63;;;22.00;99.90;;;;;;5048387;28;20613;-74
2023/05/15 07:53:50;;;;;;;13.15;9.70;;;21.90;99.90;;;;;;5029432;28;20284;-75
2023/05/15 07:56:17;;;;;;;12.57;9.35;;;22.00;99.90;;;;;;5048619;28;20215;-76
2023/05/15 07:58:43;;;;;;;12.18;9.25;;;22.40;99.90;;;;;;5044826;28;20193;-75
2023/05/15 08:01:10;;;;;;;11.95;9.68;;;22.80;99.90;;;;;;5048908;28;20768;-76
2023/05/15 08:03:37;;;;;;;12.57;9.07;;;23.20;99.90;;;;;;5043251;28;20705;-75
2023/05/15 08:06:06;;;;;;;11.93;9.38;;;23.50;99.90;;;;;;5037399;28;20229;-74
2023/05/15 08:08:33;;;;;;;11.60;8.82;;;23.70;99.90;;;;;;5047954;28;20721;-75
2023/05/15 08:11:00;;;;;;;13.05;9.75;;;23.60;99.90;;;;;;5027553;28;20204;-75
2023/05/15 08:13:27;;;;;;;14.43;9.50;;;23.60;99.90;;;;;;5049196;28;20288;-74
2023/05/15 08:15:54;;;;;;;14.30;9.18;;;23.90;99.90;;;;;;5042811;28;20216;-75
2023/05/15 08:18:21;;;;;;;10.00;8.07;;;24.00;99.90;;;;;;5038862;28;20193;-74
2023/05/15 08:20:48;;;;;;;10.90;8.13;;;24.30;99.90;;;;;;5044496;28;20205;-74
2023/05/15 08:23:15;;;;;;;9.70;7.20;;;24.40;99.90;;;;;;5045749;28;20197;-74
2023/05/15 08:25:42;;;;;;;10.57;7.82;;;24.40;99.90;;;;;;5048919;28;20332;-75
2023/05/15 08:28:09;;;;;;;9.52;7.68;;;24.30;99.90;;;;;;5049007;28;20602;-75
2023/05/15 08:30:36;;;;;;;10.70;7.47;;;24.50;99.90;;;;;;5045461;28;20217;-76
2023/05/15 08:33:03;;;;;;;10.23;7.35;;;24.40;99.90;;;;;;5048596;28;20685;-76
2023/05/15 08:35:30;;;;;;;9.07;7.20;;;24.30;99.90;;;;;;5044620;28;20256;-75
2023/05/15 08:37:58;;;;;;;9.43;7.10;;;24.30;99.90;;;;;;5047962;28;20649;-76
2023/05/15 08:40:25;;;;;;;12.40;7.97;;;24.30;99.90;;;;;;5048419;28;20198;-76
2023/05/15 08:43:16;;;;;;;11.43;9.05;;;24.50;99.90;;;;;;5047746;28;20216;-75
2023/05/15 08:45:43;;;;;;;8.68;7.10;;;24.50;99.90;;;;;;5029719;28;20267;-74
2023/05/15 08:48:14;;;;;;;8.90;7.60;;;24.40;99.90;;;;;;5048778;28;20284;-75
2023/05/15 08:50:43;;;;;;;14.45;8.13;;;24.70;99.90;;;;;;5046973;28;20394;-75
2023/05/15 08:53:11;;;;;;;11.55;8.15;;;24.90;99.90;;;;;;5046451;28;20287;-75
2023/05/15 08:55:39;;;;;;;10.40;6.80;;;24.60;99.90;;;;;;5044326;28;20210;-75
2023/05/15 08:58:08;;;;;;;10.38;7.65;;;24.90;99.90;;;;;;5047431;28;20379;-75
2023/05/15 09:00:36;;;;;;;10.02;7.88;;;24.90;99.90;;;;;;5048692;28;20221;-75
2023/05/15 09:03:03;;;;;;;9.75;7.32;;;24.70;99.90;;;;;;5046269;28;20654;-76
2023/05/15 09:05:30;;;;;;;11.50;7.68;;;24.70;99.90;;;;;;5048218;28;20224;-75
2023/05/15 09:08:00;;;;;;;8.65;7.47;;;24.50;99.90;;;;;;5036425;28;20671;-77
2023/05/15 09:10:28;;;;;;;9.95;7.90;;;24.30;99.90;;;;;;5052259;28;20551;-75
2023/05/15 09:12:56;;;;;;;9.02;6.65;;;24.20;99.90;;;;;;5049798;28;20299;-76
2023/05/15 09:15:24;;;;;;;9.32;7.47;;;24.40;99.90;;;;;;5050792;28;20213;-75
2023/05/15 09:17:51;;;;;;;8.20;6.90;;;24.50;99.90;;;;;;5047890;28;20200;-76
2023/05/15 09:20:27;;;;;;;8.95;7.00;;;24.70;99.90;;;;;;5052230;28;20237;-76
2023/05/15 09:22:55;;;;;;;10.07;7.32;;;24.90;99.90;;;;;;5051875;28;20575;-75
2023/05/15 09:25:37;;;;;;;7.70;7.00;;;25.00;99.90;;;;;;5047183;28;20225;-75
2023/05/15 09:28:09;;;;;;;8.57;7.43;;;25.20;99.90;;;;;;5048197;28;20228;-77
2023/05/15 09:30:37;;;;;;;8.15;6.60;;;25.30;99.90;;;;;;5052450;28;20214;-74
2023/05/15 09:33:04;;;;;;;8.07;6.45;;;25.20;99.90;;;;;;5051924;28;20202;-75
2023/05/15 09:35:33;;;;;;;8.13;6.20;;;25.00;99.90;;;;;;5043022;28;20288;-75
2023/05/15 09:38:01;;;;;;;8.18;6.35;;;24.70;99.90;;;;;;5049873;28;20670;-74
2023/05/15 09:40:29;;;;;;;9.57;7.20;;;24.60;99.90;;;;;;5049385;28;20648;-74
2023/05/15 09:42:57;;;;;;;9.30;7.00;;;24.40;99.90;;;;;;5049511;28;20197;-74
2023/05/15 09:45:28;;;;;;;7.75;6.82;;;24.20;99.90;;;;;;5050957;28;20213;-76
2023/05/15 09:47:58;;;;;;;8.25;7.28;;;24.00;99.90;;;;;;5051664;28;20266;-75
2023/05/15 09:50:33;;;;;;;11.25;7.50;;;23.70;99.90;;;;;;5051337;28;20205;-75
2023/05/15 09:53:00;;;;;;;11.27;7.93;;;23.60;99.90;;;;;;5047756;28;20605;-75
2023/05/15 09:55:27;;;;;;;13.77;9.02;;;23.40;99.90;;;;;;5049741;28;20260;-74
2023/05/15 09:58:11;;;;;;;8.95;8.00;;;23.30;99.90;;;;;;5051018;28;20203;-74
2023/05/15 10:00:39;;;;;;;11.15;8.35;;;23.30;99.90;;;;;;5027312;28;20221;-75
2023/05/15 10:03:16;;;;;;;11.45;8.55;;;23.40;99.90;;;;;;5051756;28;20204;-75
2023/05/15 10:05:43;;;;;;;10.15;7.30;;;23.20;99.90;;;;;;5049487;28;20357;-73
2023/05/15 10:08:11;;;;;;;10.05;7.60;;;23.10;99.90;;;;;;5048165;28;20263;-75
2023/05/15 10:10:38;;;;;;;9.57;7.88;;;23.10;99.90;;;;;;5047839;28;20254;-74
2023/05/15 10:13:06;;;;;;;9.60;7.45;;;23.00;99.90;;;;;;5047972;28;20563;-73
2023/05/15 10:15:34;;;;;;;9.02;7.68;;;22.70;99.90;;;;;;5048120;28;20212;-74
2023/05/15 10:18:03;;;;;;;10.15;7.45;;;22.60;99.90;;;;;;5047010;28;20471;-74
2023/05/15 10:20:32;;;;;;;9.98;8.05;;;22.50;99.90;;;;;;5049877;28;20606;-74
2023/05/15 10:23:01;;;;;;;10.65;7.10;;;22.60;99.90;;;;;;5048905;28;20212;-74
2023/05/15 10:25:40;;;;;;;8.90;6.78;;;22.60;99.90;;;;;;5040022;28;20239;-75
2023/05/15 10:28:08;;;;;;;9.68;6.35;;;22.80;99.90;;;;;;5031549;28;20201;-75
2023/05/15 10:30:36;;;;;;;9.85;7.22;;;22.80;99.90;;;;;;5048129;28;20753;-74
2023/05/15 10:33:04;;;;;;;6.85;4.75;;;22.90;99.90;;;;;;5049250;28;20217;-75
2023/05/15 10:35:32;;;;;;;6.32;4.60;;;22.80;99.90;;;;;;5045734;28;20201;-75
2023/05/15 10:38:00;;;;;;;6.28;4.60;;;22.80;99.90;;;;;;5047078;28;20239;-76
2023/05/15 10:40:28;;;;;;;4.63;3.72;;;22.70;99.90;;;;;;5046006;28;20563;-75
2023/05/15 10:42:59;;;;;;;5.03;3.60;;;22.70;99.90;;;;;;5032540;28;20236;-75
2023/05/15 10:45:26;;;;;;;2.88;2.58;;;22.70;99.90;;;;;;5049864;28;20217;-75
2023/05/15 10:47:53;;;;;;;3.30;2.60;;;22.80;99.90;;;;;;5044782;28;20280;-75
2023/05/15 10:50:20;;;;;;;7.32;3.47;;;22.90;99.90;;;;;;5048237;28;20197;-76
2023/05/15 10:52:50;;;;;;;7.60;4.80;;;22.70;99.90;;;;;;5049768;28;20232;-72
2023/05/15 10:55:17;;;;;;;7.15;5.18;;;22.60;99.90;;;;;;5048992;28;20292;-75
2023/05/15 10:57:46;;;;;;;8.32;5.65;;;22.50;99.90;;;;;;5046166;28;20215;-74
2023/05/15 11:00:27;;;;;;;7.28;4.80;;;22.30;99.90;;;;;;5032912;28;20282;-76
2023/05/15 11:02:55;;;;;;;7.78;4.97;;;22.30;99.90;;;;;;5048879;28;20271;-76
2023/05/15 11:05:24;;;;;;;7.18;5.03;;;22.30;99.90;;;;;;5032046;28;20219;-75
2023/05/15 11:08:20;;;;;;;7.50;4.60;;;22.20;99.90;;;;;;5045153;28;20582;-75
2023/05/15 11:10:47;;;;;;;7.20;5.55;;;22.30;99.90;;;;;;5032804;28;20355;-76
2023/05/15 11:13:14;;;;;;;7.35;4.93;;;22.40;99.90;;;;;;5049446;28;20291;-76
2023/05/15 11:15:46;;;;;;;7.65;5.35;;;22.50;99.90;;;;;;5048404;28;20707;-74
2023/05/15 11:18:13;;;;;;;7.20;4.97;;;22.60;99.90;;;;;;5048565;28;20197;-75
2023/05/15 11:20:53;;;;;;;8.27;5.80;;;22.40;99.90;;;;;;5046970;28;20205;-75
2023/05/15 11:23:21;;;;;;;6.10;4.78;;;22.20;99.90;;;;;;5047880;28;20668;-74
2023/05/15 11:25:56;;;;;;;6.10;4.50;;;22.00;99.90;;;;;;5048914;28;20239;-74
2023/05/15 11:28:24;;;;;;;6.03;3.80;;;22.00;99.90;;;;;;5049605;28;20211;-74
2023/05/15 11:30:57;;;;;;;6.57;4.90;;;21.90;99.90;;;;;;5048531;28;20252;-75
2023/05/15 11:33:30;;;;;;;8.23;5.32;;;21.70;99.90;;;;;;5030420;28;20287;-74
2023/05/15 11:35:58;;;;;;;5.90;5.18;;;21.70;99.90;;;;;;5024926;28;20191;-75
2023/05/15 11:38:25;;;;;;;7.68;4.97;;;21.70;99.90;;;;;;5048869;28;20292;-76
2023/05/15 11:41:01;;;;;;;7.45;5.60;;;21.70;99.90;;;;;;5029807;28;20553;-75
2023/05/15 11:43:34;;;;;;;9.00;5.15;;;21.70;99.90;;;;;;5045755;28;20215;-75
2023/05/15 11:46:07;;;;;;;10.15;6.40;;;21.50;99.90;;;;;;5048483;28;20224;-77
2023/05/15 11:48:40;;;;;;;9.10;5.95;;;21.40;99.90;;;;;;5045718;28;20237;-75
2023/05/15 11:51:18;;;;;;;6.07;4.78;;;21.50;99.90;;;;;;5050461;28;20521;-76
2023/05/15 11:53:45;;;;;;;8.95;5.50;;;21.50;99.90;;;;;;5047456;28;20220;-76
2023/05/15 11:56:23;;;;;;;8.25;5.07;;;21.60;99.90;;;;;;5030419;28;20197;-76
2023/05/15 11:58:56;;;;;;;6.13;4.47;;;21.70;99.90;;;;;;5031580;28;20549;-75
2023/05/15 12:01:23;;;;;;;5.35;4.20;;;21.90;99.90;;;;;;5033054;28;20274;-77
2023/05/15 12:03:50;;;;;;;7.55;4.75;;;21.90;99.90;;;;;;5029200;28;20208;-75
2023/05/15 12:06:18;;;;;;;7.25;4.93;;;22.00;99.90;;;;;;5050147;28;20240;-75
2023/05/15 12:08:53;;;;;;;7.10;4.57;;;22.00;99.90;;;;;;5048613;28;20641;-77
2023/05/15 12:11:23;;;;;;;6.68;4.72;;;22.20;99.90;;;;;;5048284;28;20280;-76
2023/05/15 12:13:54;;;;;;;12.63;7.53;;;22.00;99.90;;;;;;5045101;28;20627;-76
2023/05/15 12:16:26;;;;;;;11.15;7.15;;;21.70;99.90;;;;;;5046775;28;20293;-75
2023/05/15 12:18:55;;;;;;;10.57;7.32;;;21.30;99.90;;;;;;5049472;28;20209;-75
2023/05/15 12:21:25;;;;;;;11.55;7.90;;;21.10;99.90;;;;;;5044918;28;20197;-76
2023/05/15 12:23:52;;;;;;;13.55;8.88;;;20.90;99.90;;;;;;5047483;28;20323;-74
2023/05/15 12:26:33;;;;;;;15.90;9.27;;;20.70;99.90;;;;;;5047076;28;20233;-74
2023/05/15 12:29:00;;;;;;;15.18;10.23;;;20.60;99.90;;;;;;5047590;28;20725;-76
2023/05/15 12:31:28;;;;;;;22.20;11.43;;;20.50;99.90;;;;;;5043621;28;20571;-73
2023/05/15 12:33:55;;;;;;;16.65;10.38;;;20.40;99.90;;;;;;5043607;28;20205;-76
2023/05/15 12:36:22;;;;;;;17.25;10.75;;;20.10;99.90;;;;;;5047900;28;20725;-76
2023/05/15 12:38:49;;;;;;;16.25;10.15;;;20.10;99.90;;;;;;5041741;28;20245;-76
2023/05/15 12:41:16;;;;;;;15.60;10.40;;;20.00;99.90;;;;;;5046872;28;20197;-76
2023/05/15 12:43:43;;;;;;;17.15;10.25;;;20.00;99.90;;;;;;5050556;28;20212;-75